sensor_id;sensor_type;location;lat;lon;timestamp;P1;durP1;ratioP1;P2;durP2;ratioP2
16510;SDS011;8368;48.772;8.754;2024-02-23T00:00:07;1.37;;;0.40;;
16510;SDS011;8368;48.772;8.754;2024-02-23T00:02:36;3.33;;;1.60;;
16510;SDS011;8368;48.772;8.754;2024-02-23T00:05:02;0.87;;;0.80;;
16510;SDS011;8368;48.772;8.754;2024-02-23T00:07:28;1.33;;;0.60;;
16510;SDS011;8368;48.772;8.754;2024-02-23T00:09:54;1.37;;;0.60;;
16510;SDS011;8368;48.772;8.754;2024-02-23T00:12:19;1.73;;;0.73;;
16510;SDS011;8368;48.772;8.754;2024-02-23T00:14:45;1.60;;;1.53;;
16510;SDS011;8368;48.772;8.754;2024-02-23T00:17:11;1.03;;;0.50;;
16510;SDS011;8368;48.772;8.754;2024-02-23T00:19:36;1.53;;;0.93;;
16510;SDS011;8368;48.772;8.754;2024-02-23T00:22:02;1.30;;;0.70;;
16510;SDS011;8368;48.772;8.754;2024-02-23T00:24:28;0.60;;;0.50;;
16510;SDS011;8368;48.772;8.754;2024-02-23T00:26:54;0.50;;;0.50;;
16510;SDS011;8368;48.772;8.754;2024-02-23T00:29:20;0.70;;;0.70;;
16510;SDS011;8368;48.772;8.754;2024-02-23T00:31:46;1.10;;;0.40;;
16510;SDS011;8368;48.772;8.754;2024-02-23T00:34:12;0.60;;;0.60;;
16510;SDS011;8368;48.772;8.754;2024-02-23T00:36:41;3.37;;;0.67;;
16510;SDS011;8368;48.772;8.754;2024-02-23T00:39:09;2.70;;;0.63;;
16510;SDS011;8368;48.772;8.754;2024-02-23T00:41:35;2.67;;;0.50;;
16510;SDS011;8368;48.772;8.754;2024-02-23T00:44:04;5.00;;;0.63;;
16510;SDS011;8368;48.772;8.754;2024-02-23T00:46:30;0.73;;;0.70;;
16510;SDS011;8368;48.772;8.754;2024-02-23T00:48:55;2.30;;;0.60;;
16510;SDS011;8368;48.772;8.754;2024-02-23T00:51:21;2.27;;;0.60;;
16510;SDS011;8368;48.772;8.754;2024-02-23T00:53:47;1.33;;;0.53;;
16510;SDS011;8368;48.772;8.754;2024-02-23T00:56:13;2.13;;;0.40;;
16510;SDS011;8368;48.772;8.754;2024-02-23T00:58:39;0.87;;;0.83;;
16510;SDS011;8368;48.772;8.754;2024-02-23T01:01:05;1.17;;;1.07;;
16510;SDS011;8368;48.772;8.754;2024-02-23T01:03:30;0.60;;;0.53;;
16510;SDS011;8368;48.772;8.754;2024-02-23T01:05:56;1.70;;;0.90;;
16510;SDS011;8368;48.772;8.754;2024-02-23T01:08:21;1.63;;;0.50;;
16510;SDS011;8368;48.772;8.754;2024-02-23T01:10:47;1.40;;;0.60;;
16510;SDS011;8368;48.772;8.754;2024-02-23T01:13:12;2.17;;;0.47;;
16510;SDS011;8368;48.772;8.754;2024-02-23T01:15:38;2.93;;;0.77;;
16510;SDS011;8368;48.772;8.754;2024-02-23T01:18:04;2.17;;;0.60;;
16510;SDS011;8368;48.772;8.754;2024-02-23T01:20:32;0.70;;;0.43;;
16510;SDS011;8368;48.772;8.754;2024-02-23T01:22:58;0.93;;;0.60;;
16510;SDS011;8368;48.772;8.754;2024-02-23T01:25:23;2.47;;;0.60;;
16510;SDS011;8368;48.772;8.754;2024-02-23T01:27:49;0.97;;;0.40;;
16510;SDS011;8368;48.772;8.754;2024-02-23T01:30:15;1.90;;;0.70;;
16510;SDS011;8368;48.772;8.754;2024-02-23T01:32:40;2.23;;;0.50;;
16510;SDS011;8368;48.772;8.754;2024-02-23T01:35:06;0.50;;;0.50;;
16510;SDS011;8368;48.772;8.754;2024-02-23T01:37:33;0.30;;;0.30;;
16510;SDS011;8368;48.772;8.754;2024-02-23T01:39:59;0.53;;;0.40;;
16510;SDS011;8368;48.772;8.754;2024-02-23T01:42:25;0.30;;;0.30;;
16510;SDS011;8368;48.772;8.754;2024-02-23T01:44:51;1.00;;;0.50;;
16510;SDS011;8368;48.772;8.754;2024-02-23T01:47:17;0.37;;;0.37;;
16510;SDS011;8368;48.772;8.754;2024-02-23T01:49:43;1.93;;;0.70;;
16510;SDS011;8368;48.772;8.754;2024-02-23T01:52:11;0.93;;;0.60;;
16510;SDS011;8368;48.772;8.754;2024-02-23T01:54:38;1.80;;;0.70;;
16510;SDS011;8368;48.772;8.754;2024-02-23T01:57:04;1.97;;;0.80;;
16510;SDS011;8368;48.772;8.754;2024-02-23T01:59:29;3.03;;;0.67;;
16510;SDS011;8368;48.772;8.754;2024-02-23T02:01:55;1.70;;;0.87;;
16510;SDS011;8368;48.772;8.754;2024-02-23T02:04:21;1.60;;;0.60;;
16510;SDS011;8368;48.772;8.754;2024-02-23T02:06:46;1.37;;;0.60;;
16510;SDS011;8368;48.772;8.754;2024-02-23T02:09:13;1.33;;;0.50;;
16510;SDS011;8368;48.772;8.754;2024-02-23T02:11:48;1.17;;;0.60;;
16510;SDS011;8368;48.772;8.754;2024-02-23T02:14:15;1.53;;;0.60;;
16510;SDS011;8368;48.772;8.754;2024-02-23T02:16:41;0.77;;;0.73;;
16510;SDS011;8368;48.772;8.754;2024-02-23T02:19:08;1.30;;;0.50;;
16510;SDS011;8368;48.772;8.754;2024-02-23T02:21:34;2.00;;;0.53;;
16510;SDS011;8368;48.772;8.754;2024-02-23T02:24:01;3.40;;;0.53;;
16510;SDS011;8368;48.772;8.754;2024-02-23T02:26:26;1.53;;;0.73;;
16510;SDS011;8368;48.772;8.754;2024-02-23T02:28:52;3.10;;;0.60;;
16510;SDS011;8368;48.772;8.754;2024-02-23T02:31:17;1.03;;;0.40;;
16510;SDS011;8368;48.772;8.754;2024-02-23T02:33:43;0.40;;;0.40;;
16510;SDS011;8368;48.772;8.754;2024-02-23T02:36:09;3.40;;;0.67;;
16510;SDS011;8368;48.772;8.754;2024-02-23T02:38:35;0.93;;;0.47;;
16510;SDS011;8368;48.772;8.754;2024-02-23T02:41:01;1.23;;;0.53;;
16510;SDS011;8368;48.772;8.754;2024-02-23T02:43:26;0.57;;;0.57;;
16510;SDS011;8368;48.772;8.754;2024-02-23T02:45:52;0.40;;;0.40;;
16510;SDS011;8368;48.772;8.754;2024-02-23T02:48:18;1.80;;;0.50;;
16510;SDS011;8368;48.772;8.754;2024-02-23T02:50:43;1.97;;;0.50;;
16510;SDS011;8368;48.772;8.754;2024-02-23T02:53:09;1.10;;;0.63;;
16510;SDS011;8368;48.772;8.754;2024-02-23T02:55:36;0.40;;;0.40;;
16510;SDS011;8368;48.772;8.754;2024-02-23T02:58:01;1.00;;;0.50;;
16510;SDS011;8368;48.772;8.754;2024-02-23T03:00:27;0.50;;;0.50;;
16510;SDS011;8368;48.772;8.754;2024-02-23T03:02:53;0.53;;;0.47;;
16510;SDS011;8368;48.772;8.754;2024-02-23T03:05:19;0.20;;;0.20;;
16510;SDS011;8368;48.772;8.754;2024-02-23T03:07:44;1.20;;;0.50;;
16510;SDS011;8368;48.772;8.754;2024-02-23T03:10:10;0.53;;;0.53;;
16510;SDS011;8368;48.772;8.754;2024-02-23T03:12:36;3.43;;;0.57;;
16510;SDS011;8368;48.772;8.754;2024-02-23T03:15:01;1.00;;;0.80;;
16510;SDS011;8368;48.772;8.754;2024-02-23T03:17:28;1.27;;;0.37;;
16510;SDS011;8368;48.772;8.754;2024-02-23T03:19:53;2.63;;;0.60;;
16510;SDS011;8368;48.772;8.754;2024-02-23T03:22:19;1.17;;;0.40;;
16510;SDS011;8368;48.772;8.754;2024-02-23T03:24:44;0.77;;;0.70;;
16510;SDS011;8368;48.772;8.754;2024-02-23T03:27:10;0.50;;;0.50;;
16510;SDS011;8368;48.772;8.754;2024-02-23T03:29:37;1.33;;;0.60;;
16510;SDS011;8368;48.772;8.754;2024-02-23T03:32:03;2.60;;;0.60;;
16510;SDS011;8368;48.772;8.754;2024-02-23T03:34:29;3.30;;;0.70;;
16510;SDS011;8368;48.772;8.754;2024-02-23T03:36:55;1.27;;;0.60;;
16510;SDS011;8368;48.772;8.754;2024-02-23T03:39:20;1.10;;;0.50;;
16510;SDS011;8368;48.772;8.754;2024-02-23T03:41:46;1.60;;;0.50;;
16510;SDS011;8368;48.772;8.754;2024-02-23T03:44:11;0.40;;;0.40;;
16510;SDS011;8368;48.772;8.754;2024-02-23T03:46:37;0.40;;;0.40;;
16510;SDS011;8368;48.772;8.754;2024-02-23T03:49:02;1.80;;;0.50;;
16510;SDS011;8368;48.772;8.754;2024-02-23T03:51:28;0.50;;;0.30;;
16510;SDS011;8368;48.772;8.754;2024-02-23T03:53:54;5.03;;;0.70;;
16510;SDS011;8368;48.772;8.754;2024-02-23T03:56:19;2.70;;;0.97;;
16510;SDS011;8368;48.772;8.754;2024-02-23T03:58:45;1.80;;;0.47;;
16510;SDS011;8368;48.772;8.754;2024-02-23T04:01:10;3.13;;;1.40;;
16510;SDS011;8368;48.772;8.754;2024-02-23T04:03:36;0.93;;;0.60;;
16510;SDS011;8368;48.772;8.754;2024-02-23T04:06:01;1.90;;;0.60;;
16510;SDS011;8368;48.772;8.754;2024-02-23T04:08:27;2.33;;;0.40;;
16510;SDS011;8368;48.772;8.754;2024-02-23T04:10:52;0.43;;;0.43;;
16510;SDS011;8368;48.772;8.754;2024-02-23T04:13:18;1.17;;;0.50;;
16510;SDS011;8368;48.772;8.754;2024-02-23T04:15:44;2.73;;;0.60;;
16510;SDS011;8368;48.772;8.754;2024-02-23T04:18:10;1.40;;;0.40;;
16510;SDS011;8368;48.772;8.754;2024-02-23T04:20:36;1.47;;;0.50;;
16510;SDS011;8368;48.772;8.754;2024-02-23T04:23:01;1.23;;;0.73;;
16510;SDS011;8368;48.772;8.754;2024-02-23T04:25:27;0.67;;;0.67;;
16510;SDS011;8368;48.772;8.754;2024-02-23T04:27:52;1.17;;;0.40;;
16510;SDS011;8368;48.772;8.754;2024-02-23T04:30:18;0.20;;;0.20;;
16510;SDS011;8368;48.772;8.754;2024-02-23T04:32:43;0.40;;;0.40;;
16510;SDS011;8368;48.772;8.754;2024-02-23T04:35:09;0.97;;;0.50;;
16510;SDS011;8368;48.772;8.754;2024-02-23T04:37:35;1.40;;;0.50;;
16510;SDS011;8368;48.772;8.754;2024-02-23T04:40:00;2.07;;;0.67;;
16510;SDS011;8368;48.772;8.754;2024-02-23T04:42:26;2.60;;;0.70;;
16510;SDS011;8368;48.772;8.754;2024-02-23T04:44:52;0.40;;;0.40;;
16510;SDS011;8368;48.772;8.754;2024-02-23T04:47:20;2.83;;;0.70;;
16510;SDS011;8368;48.772;8.754;2024-02-23T04:49:45;2.10;;;0.50;;
16510;SDS011;8368;48.772;8.754;2024-02-23T04:52:11;3.03;;;0.37;;
16510;SDS011;8368;48.772;8.754;2024-02-23T04:54:36;1.23;;;0.40;;
16510;SDS011;8368;48.772;8.754;2024-02-23T04:57:02;2.23;;;1.00;;
16510;SDS011;8368;48.772;8.754;2024-02-23T04:59:27;0.47;;;0.47;;
16510;SDS011;8368;48.772;8.754;2024-02-23T05:01:55;0.40;;;0.40;;
16510;SDS011;8368;48.772;8.754;2024-02-23T05:04:20;1.50;;;0.43;;
16510;SDS011;8368;48.772;8.754;2024-02-23T05:06:46;1.90;;;0.90;;
16510;SDS011;8368;48.772;8.754;2024-02-23T05:09:11;2.53;;;0.40;;
16510;SDS011;8368;48.772;8.754;2024-02-23T05:11:37;0.90;;;0.60;;
16510;SDS011;8368;48.772;8.754;2024-02-23T05:14:02;0.50;;;0.50;;
16510;SDS011;8368;48.772;8.754;2024-02-23T05:16:28;0.73;;;0.50;;
16510;SDS011;8368;48.772;8.754;2024-02-23T05:18:53;2.00;;;0.83;;
16510;SDS011;8368;48.772;8.754;2024-02-23T05:21:19;1.03;;;0.53;;
16510;SDS011;8368;48.772;8.754;2024-02-23T05:23:44;1.13;;;0.73;;
16510;SDS011;8368;48.772;8.754;2024-02-23T05:26:11;1.90;;;1.23;;
16510;SDS011;8368;48.772;8.754;2024-02-23T05:28:37;1.77;;;1.13;;
16510;SDS011;8368;48.772;8.754;2024-02-23T05:31:03;5.30;;;0.70;;
16510;SDS011;8368;48.772;8.754;2024-02-23T05:33:29;0.60;;;0.60;;
16510;SDS011;8368;48.772;8.754;2024-02-23T05:35:55;3.40;;;0.60;;
16510;SDS011;8368;48.772;8.754;2024-02-23T05:38:20;1.53;;;0.70;;
16510;SDS011;8368;48.772;8.754;2024-02-23T05:40:46;1.60;;;0.57;;
16510;SDS011;8368;48.772;8.754;2024-02-23T05:43:13;2.93;;;0.80;;
16510;SDS011;8368;48.772;8.754;2024-02-23T05:45:39;3.73;;;1.17;;
16510;SDS011;8368;48.772;8.754;2024-02-23T05:48:04;2.23;;;1.30;;
16510;SDS011;8368;48.772;8.754;2024-02-23T05:50:30;1.80;;;1.40;;
16510;SDS011;8368;48.772;8.754;2024-02-23T05:52:56;1.40;;;0.70;;
16510;SDS011;8368;48.772;8.754;2024-02-23T05:55:21;3.33;;;1.07;;
16510;SDS011;8368;48.772;8.754;2024-02-23T05:57:47;3.63;;;1.17;;
16510;SDS011;8368;48.772;8.754;2024-02-23T06:00:12;1.57;;;0.80;;
16510;SDS011;8368;48.772;8.754;2024-02-23T06:02:39;3.17;;;1.47;;
16510;SDS011;8368;48.772;8.754;2024-02-23T06:05:05;3.07;;;1.53;;
16510;SDS011;8368;48.772;8.754;2024-02-23T06:07:32;1.70;;;1.00;;
16510;SDS011;8368;48.772;8.754;2024-02-23T06:09:59;1.70;;;0.97;;
16510;SDS011;8368;48.772;8.754;2024-02-23T06:12:25;2.33;;;1.10;;
16510;SDS011;8368;48.772;8.754;2024-02-23T06:14:52;0.73;;;0.73;;
16510;SDS011;8368;48.772;8.754;2024-02-23T06:17:17;2.47;;;0.50;;
16510;SDS011;8368;48.772;8.754;2024-02-23T06:19:43;0.63;;;0.63;;
16510;SDS011;8368;48.772;8.754;2024-02-23T06:22:08;1.77;;;0.90;;
16510;SDS011;8368;48.772;8.754;2024-02-23T06:24:35;1.10;;;1.10;;
16510;SDS011;8368;48.772;8.754;2024-02-23T06:27:01;2.97;;;1.27;;
16510;SDS011;8368;48.772;8.754;2024-02-23T06:29:28;1.53;;;0.83;;
16510;SDS011;8368;48.772;8.754;2024-02-23T06:31:54;1.70;;;0.80;;
16510;SDS011;8368;48.772;8.754;2024-02-23T06:34:20;0.73;;;0.50;;
16510;SDS011;8368;48.772;8.754;2024-02-23T06:36:45;0.80;;;0.60;;
16510;SDS011;8368;48.772;8.754;2024-02-23T06:39:11;2.33;;;0.73;;
16510;SDS011;8368;48.772;8.754;2024-02-23T06:41:37;1.60;;;0.80;;
16510;SDS011;8368;48.772;8.754;2024-02-23T06:44:04;1.20;;;1.10;;
16510;SDS011;8368;48.772;8.754;2024-02-23T06:46:29;1.80;;;1.10;;
16510;SDS011;8368;48.772;8.754;2024-02-23T06:48:55;0.83;;;0.83;;
16510;SDS011;8368;48.772;8.754;2024-02-23T06:51:21;1.23;;;0.60;;
16510;SDS011;8368;48.772;8.754;2024-02-23T06:53:46;0.67;;;0.67;;
16510;SDS011;8368;48.772;8.754;2024-02-23T06:56:12;1.00;;;0.90;;
16510;SDS011;8368;48.772;8.754;2024-02-23T06:58:38;2.30;;;1.50;;
16510;SDS011;8368;48.772;8.754;2024-02-23T07:01:04;3.13;;;1.27;;
16510;SDS011;8368;48.772;8.754;2024-02-23T07:03:31;2.57;;;1.90;;
16510;SDS011;8368;48.772;8.754;2024-02-23T07:06:00;5.53;;;1.40;;
16510;SDS011;8368;48.772;8.754;2024-02-23T07:08:26;4.20;;;1.70;;
16510;SDS011;8368;48.772;8.754;2024-02-23T07:10:51;1.80;;;1.70;;
16510;SDS011;8368;48.772;8.754;2024-02-23T07:13:17;8.87;;;4.57;;
16510;SDS011;8368;48.772;8.754;2024-02-23T07:15:43;12.63;;;6.63;;
16510;SDS011;8368;48.772;8.754;2024-02-23T07:18:08;8.83;;;4.50;;
16510;SDS011;8368;48.772;8.754;2024-02-23T07:20:35;2.93;;;2.37;;
16510;SDS011;8368;48.772;8.754;2024-02-23T07:23:01;1.80;;;1.70;;
16510;SDS011;8368;48.772;8.754;2024-02-23T07:25:27;5.70;;;3.27;;
16510;SDS011;8368;48.772;8.754;2024-02-23T07:27:52;13.50;;;6.40;;
16510;SDS011;8368;48.772;8.754;2024-02-23T07:30:18;8.90;;;5.23;;
16510;SDS011;8368;48.772;8.754;2024-02-23T07:32:43;6.03;;;3.30;;
16510;SDS011;8368;48.772;8.754;2024-02-23T07:35:09;2.33;;;1.80;;
16510;SDS011;8368;48.772;8.754;2024-02-23T07:37:36;1.90;;;1.50;;
16510;SDS011;8368;48.772;8.754;2024-02-23T07:40:02;5.30;;;1.10;;
16510;SDS011;8368;48.772;8.754;2024-02-23T07:42:29;0.60;;;0.60;;
16510;SDS011;8368;48.772;8.754;2024-02-23T07:44:55;2.10;;;0.70;;
16510;SDS011;8368;48.772;8.754;2024-02-23T07:47:21;3.77;;;0.80;;
16510;SDS011;8368;48.772;8.754;2024-02-23T07:49:47;3.57;;;0.80;;
16510;SDS011;8368;48.772;8.754;2024-02-23T07:52:12;0.50;;;0.50;;
16510;SDS011;8368;48.772;8.754;2024-02-23T07:54:38;1.10;;;0.80;;
16510;SDS011;8368;48.772;8.754;2024-02-23T07:57:03;0.90;;;0.90;;
16510;SDS011;8368;48.772;8.754;2024-02-23T07:59:32;1.43;;;1.30;;
16510;SDS011;8368;48.772;8.754;2024-02-23T08:01:58;2.30;;;1.30;;
16510;SDS011;8368;48.772;8.754;2024-02-23T08:04:23;3.10;;;1.97;;
16510;SDS011;8368;48.772;8.754;2024-02-23T08:06:49;4.03;;;1.30;;
16510;SDS011;8368;48.772;8.754;2024-02-23T08:09:16;3.10;;;1.30;;
16510;SDS011;8368;48.772;8.754;2024-02-23T08:11:41;0.80;;;0.80;;
16510;SDS011;8368;48.772;8.754;2024-02-23T08:14:07;0.80;;;0.80;;
16510;SDS011;8368;48.772;8.754;2024-02-23T08:16:33;1.23;;;0.60;;
16510;SDS011;8368;48.772;8.754;2024-02-23T08:18:59;1.57;;;0.73;;
16510;SDS011;8368;48.772;8.754;2024-02-23T08:21:24;2.30;;;0.80;;
16510;SDS011;8368;48.772;8.754;2024-02-23T08:23:51;3.03;;;0.90;;
16510;SDS011;8368;48.772;8.754;2024-02-23T08:26:16;2.13;;;0.70;;
16510;SDS011;8368;48.772;8.754;2024-02-23T08:28:42;1.20;;;0.70;;
16510;SDS011;8368;48.772;8.754;2024-02-23T08:31:08;0.70;;;0.70;;
16510;SDS011;8368;48.772;8.754;2024-02-23T08:33:33;1.97;;;0.60;;
16510;SDS011;8368;48.772;8.754;2024-02-23T08:35:59;0.90;;;0.90;;
16510;SDS011;8368;48.772;8.754;2024-02-23T08:38:25;1.70;;;1.00;;
16510;SDS011;8368;48.772;8.754;2024-02-23T08:40:50;0.47;;;0.47;;
16510;SDS011;8368;48.772;8.754;2024-02-23T08:43:16;0.60;;;0.60;;
16510;SDS011;8368;48.772;8.754;2024-02-23T08:45:41;2.70;;;0.60;;
16510;SDS011;8368;48.772;8.754;2024-02-23T08:48:07;1.00;;;0.70;;
16510;SDS011;8368;48.772;8.754;2024-02-23T08:50:33;1.40;;;0.67;;
16510;SDS011;8368;48.772;8.754;2024-02-23T08:52:59;1.27;;;0.50;;
16510;SDS011;8368;48.772;8.754;2024-02-23T08:55:24;4.63;;;0.80;;
16510;SDS011;8368;48.772;8.754;2024-02-23T08:57:50;0.60;;;0.60;;
16510;SDS011;8368;48.772;8.754;2024-02-23T09:00:16;1.10;;;0.67;;
16510;SDS011;8368;48.772;8.754;2024-02-23T09:02:41;4.97;;;0.60;;
16510;SDS011;8368;48.772;8.754;2024-02-23T09:05:07;0.50;;;0.50;;
16510;SDS011;8368;48.772;8.754;2024-02-23T09:07:33;3.23;;;0.77;;
16510;SDS011;8368;48.772;8.754;2024-02-23T09:09:59;1.13;;;0.57;;
16510;SDS011;8368;48.772;8.754;2024-02-23T09:12:25;2.67;;;0.70;;
16510;SDS011;8368;48.772;8.754;2024-02-23T09:14:50;0.77;;;0.73;;
16510;SDS011;8368;48.772;8.754;2024-02-23T09:17:16;1.03;;;0.60;;
16510;SDS011;8368;48.772;8.754;2024-02-23T09:19:44;2.67;;;0.80;;
16510;SDS011;8368;48.772;8.754;2024-02-23T09:22:09;2.03;;;0.70;;
16510;SDS011;8368;48.772;8.754;2024-02-23T09:24:35;2.13;;;0.73;;
16510;SDS011;8368;48.772;8.754;2024-02-23T09:27:03;1.43;;;0.50;;
16510;SDS011;8368;48.772;8.754;2024-02-23T09:29:29;0.63;;;0.63;;
16510;SDS011;8368;48.772;8.754;2024-02-23T09:31:54;1.60;;;0.90;;
16510;SDS011;8368;48.772;8.754;2024-02-23T09:34:20;0.73;;;0.50;;
16510;SDS011;8368;48.772;8.754;2024-02-23T09:36:45;1.43;;;0.43;;
16510;SDS011;8368;48.772;8.754;2024-02-23T09:39:11;2.33;;;0.63;;
16510;SDS011;8368;48.772;8.754;2024-02-23T09:41:36;0.93;;;0.60;;
16510;SDS011;8368;48.772;8.754;2024-02-23T09:44:04;2.83;;;0.90;;
16510;SDS011;8368;48.772;8.754;2024-02-23T09:46:32;0.83;;;0.50;;
16510;SDS011;8368;48.772;8.754;2024-02-23T09:48:58;1.70;;;0.67;;
16510;SDS011;8368;48.772;8.754;2024-02-23T09:51:25;2.07;;;0.80;;
16510;SDS011;8368;48.772;8.754;2024-02-23T09:53:50;1.70;;;0.60;;
16510;SDS011;8368;48.772;8.754;2024-02-23T09:56:17;1.70;;;0.50;;
16510;SDS011;8368;48.772;8.754;2024-02-23T09:58:44;2.43;;;0.47;;
16510;SDS011;8368;48.772;8.754;2024-02-23T10:01:13;3.10;;;0.83;;
16510;SDS011;8368;48.772;8.754;2024-02-23T10:03:47;2.20;;;0.60;;
16510;SDS011;8368;48.772;8.754;2024-02-23T10:06:13;1.07;;;0.87;;
16510;SDS011;8368;48.772;8.754;2024-02-23T10:08:38;2.27;;;0.67;;
16510;SDS011;8368;48.772;8.754;2024-02-23T10:11:04;0.53;;;0.50;;
16510;SDS011;8368;48.772;8.754;2024-02-23T10:13:30;0.50;;;0.50;;
16510;SDS011;8368;48.772;8.754;2024-02-23T10:15:55;3.03;;;0.67;;
16510;SDS011;8368;48.772;8.754;2024-02-23T10:18:21;0.97;;;0.60;;
16510;SDS011;8368;48.772;8.754;2024-02-23T10:20:48;2.00;;;0.60;;
16510;SDS011;8368;48.772;8.754;2024-02-23T10:23:15;1.70;;;0.70;;
16510;SDS011;8368;48.772;8.754;2024-02-23T10:25:41;2.03;;;1.03;;
16510;SDS011;8368;48.772;8.754;2024-02-23T10:28:06;2.63;;;0.60;;
16510;SDS011;8368;48.772;8.754;2024-02-23T10:30:32;2.07;;;0.50;;
16510;SDS011;8368;48.772;8.754;2024-02-23T10:32:58;2.87;;;0.50;;
16510;SDS011;8368;48.772;8.754;2024-02-23T10:35:24;3.70;;;0.70;;
16510;SDS011;8368;48.772;8.754;2024-02-23T10:37:52;2.10;;;0.90;;
16510;SDS011;8368;48.772;8.754;2024-02-23T10:40:20;4.30;;;1.00;;
16510;SDS011;8368;48.772;8.754;2024-02-23T10:42:47;1.33;;;0.70;;
16510;SDS011;8368;48.772;8.754;2024-02-23T10:45:20;0.70;;;0.70;;
16510;SDS011;8368;48.772;8.754;2024-02-23T10:47:49;1.07;;;0.63;;
16510;SDS011;8368;48.772;8.754;2024-02-23T10:50:17;3.60;;;0.60;;
16510;SDS011;8368;48.772;8.754;2024-02-23T10:52:44;1.17;;;0.63;;
16510;SDS011;8368;48.772;8.754;2024-02-23T10:55:11;1.97;;;0.87;;
16510;SDS011;8368;48.772;8.754;2024-02-23T10:57:37;1.77;;;0.80;;
16510;SDS011;8368;48.772;8.754;2024-02-23T11:00:04;2.43;;;0.63;;
16510;SDS011;8368;48.772;8.754;2024-02-23T11:02:34;1.37;;;0.50;;
16510;SDS011;8368;48.772;8.754;2024-02-23T11:05:04;1.03;;;0.57;;
16510;SDS011;8368;48.772;8.754;2024-02-23T11:07:30;3.03;;;1.00;;
16510;SDS011;8368;48.772;8.754;2024-02-23T11:09:59;2.87;;;1.00;;
16510;SDS011;8368;48.772;8.754;2024-02-23T11:12:25;0.93;;;0.90;;
16510;SDS011;8368;48.772;8.754;2024-02-23T11:14:56;1.93;;;0.63;;
16510;SDS011;8368;48.772;8.754;2024-02-23T11:17:32;3.63;;;1.23;;
16510;SDS011;8368;48.772;8.754;2024-02-23T11:19:58;3.87;;;1.03;;
16510;SDS011;8368;48.772;8.754;2024-02-23T11:22:27;5.70;;;0.90;;
16510;SDS011;8368;48.772;8.754;2024-02-23T11:25:00;3.50;;;0.80;;
16510;SDS011;8368;48.772;8.754;2024-02-23T11:27:29;2.30;;;0.90;;
16510;SDS011;8368;48.772;8.754;2024-02-23T11:30:14;0.73;;;0.73;;
16510;SDS011;8368;48.772;8.754;2024-02-23T11:32:43;1.70;;;0.73;;
16510;SDS011;8368;48.772;8.754;2024-02-23T11:35:11;4.27;;;1.10;;
16510;SDS011;8368;48.772;8.754;2024-02-23T11:37:46;1.93;;;0.77;;
16510;SDS011;8368;48.772;8.754;2024-02-23T11:40:23;3.70;;;0.80;;
16510;SDS011;8368;48.772;8.754;2024-02-23T11:42:50;1.63;;;0.70;;
16510;SDS011;8368;48.772;8.754;2024-02-23T11:45:16;2.23;;;1.00;;
16510;SDS011;8368;48.772;8.754;2024-02-23T11:47:42;5.67;;;0.93;;
16510;SDS011;8368;48.772;8.754;2024-02-23T11:50:08;3.60;;;0.93;;
16510;SDS011;8368;48.772;8.754;2024-02-23T11:52:34;2.67;;;1.07;;
16510;SDS011;8368;48.772;8.754;2024-02-23T11:55:01;3.50;;;1.13;;
16510;SDS011;8368;48.772;8.754;2024-02-23T11:57:27;1.83;;;0.80;;
16510;SDS011;8368;48.772;8.754;2024-02-23T11:59:53;1.90;;;0.90;;
16510;SDS011;8368;48.772;8.754;2024-02-23T12:02:19;2.77;;;0.83;;
16510;SDS011;8368;48.772;8.754;2024-02-23T12:04:46;7.50;;;1.27;;
16510;SDS011;8368;48.772;8.754;2024-02-23T12:07:11;3.20;;;1.00;;
16510;SDS011;8368;48.772;8.754;2024-02-23T12:09:37;0.90;;;0.70;;
16510;SDS011;8368;48.772;8.754;2024-02-23T12:12:06;2.47;;;0.90;;
16510;SDS011;8368;48.772;8.754;2024-02-23T12:14:31;0.77;;;0.70;;
16510;SDS011;8368;48.772;8.754;2024-02-23T12:17:01;1.77;;;0.80;;
16510;SDS011;8368;48.772;8.754;2024-02-23T12:19:29;3.47;;;1.17;;
16510;SDS011;8368;48.772;8.754;2024-02-23T12:21:59;3.70;;;1.20;;
16510;SDS011;8368;48.772;8.754;2024-02-23T12:24:29;2.27;;;0.73;;
16510;SDS011;8368;48.772;8.754;2024-02-23T12:26:55;1.27;;;0.87;;
16510;SDS011;8368;48.772;8.754;2024-02-23T12:29:21;0.97;;;0.83;;
16510;SDS011;8368;48.772;8.754;2024-02-23T12:31:46;0.77;;;0.77;;
16510;SDS011;8368;48.772;8.754;2024-02-23T12:34:13;2.50;;;0.90;;
16510;SDS011;8368;48.772;8.754;2024-02-23T12:36:38;1.33;;;0.80;;
16510;SDS011;8368;48.772;8.754;2024-02-23T12:39:04;1.23;;;0.87;;
16510;SDS011;8368;48.772;8.754;2024-02-23T12:41:30;1.03;;;0.60;;
16510;SDS011;8368;48.772;8.754;2024-02-23T12:43:56;3.97;;;1.00;;
16510;SDS011;8368;48.772;8.754;2024-02-23T12:46:21;1.13;;;0.80;;
16510;SDS011;8368;48.772;8.754;2024-02-23T12:48:48;3.20;;;0.80;;
16510;SDS011;8368;48.772;8.754;2024-02-23T12:51:14;1.87;;;1.00;;
16510;SDS011;8368;48.772;8.754;2024-02-23T12:53:40;1.13;;;1.03;;
16510;SDS011;8368;48.772;8.754;2024-02-23T12:56:07;4.87;;;1.53;;
16510;SDS011;8368;48.772;8.754;2024-02-23T12:58:37;2.03;;;1.03;;
16510;SDS011;8368;48.772;8.754;2024-02-23T13:01:03;4.23;;;0.70;;
16510;SDS011;8368;48.772;8.754;2024-02-23T13:03:29;2.10;;;1.07;;
16510;SDS011;8368;48.772;8.754;2024-02-23T13:05:58;2.80;;;0.80;;
16510;SDS011;8368;48.772;8.754;2024-02-23T13:08:24;3.27;;;0.90;;
16510;SDS011;8368;48.772;8.754;2024-02-23T13:10:51;4.50;;;1.13;;
16510;SDS011;8368;48.772;8.754;2024-02-23T13:13:17;2.33;;;1.20;;
16510;SDS011;8368;48.772;8.754;2024-02-23T13:15:43;2.87;;;1.00;;
16510;SDS011;8368;48.772;8.754;2024-02-23T13:18:09;6.33;;;1.77;;
16510;SDS011;8368;48.772;8.754;2024-02-23T13:20:35;5.30;;;1.80;;
16510;SDS011;8368;48.772;8.754;2024-02-23T13:23:04;2.83;;;1.20;;
16510;SDS011;8368;48.772;8.754;2024-02-23T13:25:33;2.40;;;1.07;;
16510;SDS011;8368;48.772;8.754;2024-02-23T13:27:59;2.83;;;1.00;;
16510;SDS011;8368;48.772;8.754;2024-02-23T13:30:24;4.67;;;1.30;;
16510;SDS011;8368;48.772;8.754;2024-02-23T13:32:50;1.67;;;0.83;;
16510;SDS011;8368;48.772;8.754;2024-02-23T13:35:16;2.73;;;1.10;;
16510;SDS011;8368;48.772;8.754;2024-02-23T13:37:42;2.20;;;1.13;;
16510;SDS011;8368;48.772;8.754;2024-02-23T13:40:08;1.30;;;0.70;;
16510;SDS011;8368;48.772;8.754;2024-02-23T13:42:34;3.17;;;1.23;;
16510;SDS011;8368;48.772;8.754;2024-02-23T13:45:01;3.17;;;1.27;;
16510;SDS011;8368;48.772;8.754;2024-02-23T13:47:26;4.37;;;1.10;;
16510;SDS011;8368;48.772;8.754;2024-02-23T13:49:52;1.10;;;0.90;;
16510;SDS011;8368;48.772;8.754;2024-02-23T13:52:17;2.53;;;0.80;;
16510;SDS011;8368;48.772;8.754;2024-02-23T13:54:43;1.57;;;0.73;;
16510;SDS011;8368;48.772;8.754;2024-02-23T13:57:08;3.10;;;1.57;;
16510;SDS011;8368;48.772;8.754;2024-02-23T13:59:34;2.13;;;1.10;;
16510;SDS011;8368;48.772;8.754;2024-02-23T14:01:59;4.20;;;1.13;;
16510;SDS011;8368;48.772;8.754;2024-02-23T14:04:25;1.07;;;0.93;;
16510;SDS011;8368;48.772;8.754;2024-02-23T14:06:51;3.40;;;1.00;;
16510;SDS011;8368;48.772;8.754;2024-02-23T14:09:16;5.33;;;1.23;;
16510;SDS011;8368;48.772;8.754;2024-02-23T14:11:42;1.63;;;1.00;;
16510;SDS011;8368;48.772;8.754;2024-02-23T14:14:08;2.43;;;1.00;;
16510;SDS011;8368;48.772;8.754;2024-02-23T14:16:33;5.53;;;2.10;;
16510;SDS011;8368;48.772;8.754;2024-02-23T14:18:59;4.70;;;1.70;;
16510;SDS011;8368;48.772;8.754;2024-02-23T14:21:25;2.60;;;1.40;;
16510;SDS011;8368;48.772;8.754;2024-02-23T14:23:51;3.80;;;1.07;;
16510;SDS011;8368;48.772;8.754;2024-02-23T14:26:17;2.20;;;1.03;;
16510;SDS011;8368;48.772;8.754;2024-02-23T14:28:42;2.37;;;1.07;;
16510;SDS011;8368;48.772;8.754;2024-02-23T14:31:08;3.20;;;0.80;;
16510;SDS011;8368;48.772;8.754;2024-02-23T14:33:33;2.47;;;0.90;;
16510;SDS011;8368;48.772;8.754;2024-02-23T14:35:59;1.23;;;1.13;;
16510;SDS011;8368;48.772;8.754;2024-02-23T14:38:24;3.60;;;1.23;;
16510;SDS011;8368;48.772;8.754;2024-02-23T14:40:50;6.53;;;1.20;;
16510;SDS011;8368;48.772;8.754;2024-02-23T14:43:16;1.03;;;0.70;;
16510;SDS011;8368;48.772;8.754;2024-02-23T14:45:43;2.23;;;0.90;;
16510;SDS011;8368;48.772;8.754;2024-02-23T14:48:09;3.33;;;1.30;;
16510;SDS011;8368;48.772;8.754;2024-02-23T14:50:34;7.10;;;1.30;;
16510;SDS011;8368;48.772;8.754;2024-02-23T14:53:00;2.57;;;1.03;;